PWSweather.com
Personal Weather Stations
Station Observations
SHAHALMS1
Eftra, Falkenberg, HA

EftraFalkenberg, HA

Lat: 56.85, Lon: 12.65

Elevation: 140

Station Type:

http://hem.passagen.se/risarp101

High Low Average
Temperature 69.8°F21.0°F 54.5°F12.5°F 60.6°F15.9°F
Dew Point 59.3°F15.2°F 50.9°F10.5°F 54.4°F12.4°F
Winds 6.0 mph W9.7 mph W Calm Calm 2.3 mph 3.7 mph
Wind Gusts 15.7 mph25.3 mph -- 6.6 mph10.6 mph
Humidity 96% 60% 81%
Pressure 29.95 in1014.20 in 29.80 in1009.10 in -
Precipitation 2.36 in59.90 in - -
Hour Temp Dew Point Humidity Winds Wind Gusts Pressure Precip Precip Rate Daily Precip Total
12:00 AM 56.5°F13.6°C 53.3°F11.8°C 89% 0.7 mph SSE1.1 kmh SSE 4.7 mph7.6 kmh 29.83 in1010.2 mb 0.00 in0.0 mm 0.00 in0.0 mm 0.00 in0.0 mm
12:15 AM 56.5°F13.6°C 53.6°F12.0°C 90% Calm Calm 1.8 mph2.9 kmh 29.83 in1010.2 mb 0.00 in0.0 mm 0.00 in0.0 mm 0.00 in0.0 mm
12:30 AM 56.1°F13.4°C 53.2°F11.8°C 90% 0.8 mph S1.3 kmh S 4.3 mph6.9 kmh 29.83 in1010.2 mb 0.00 in0.0 mm 0.00 in0.0 mm 0.00 in0.0 mm
12:45 AM 55.8°F13.2°C 52.9°F11.6°C 90% 0.5 mph S0.8 kmh S 3.2 mph5.1 kmh 29.83 in1010.2 mb 0.00 in0.0 mm 0.00 in0.0 mm 0.00 in0.0 mm
01:00 AM 55.9°F13.3°C 53.4°F11.9°C 91% Calm Calm -- 29.83 in1010.2 mb 0.00 in0.0 mm 0.00 in0.0 mm 0.00 in0.0 mm
01:15 AM 55.8°F13.2°C 53.2°F11.8°C 91% Calm Calm -- 29.83 in1010.2 mb 0.00 in0.0 mm 0.00 in0.0 mm 0.00 in0.0 mm
01:30 AM 55.4°F13.0°C 52.8°F11.6°C 91% 0.1 mph E0.2 kmh E 5.7 mph9.2 kmh 29.83 in1010.2 mb 0.00 in0.0 mm 0.00 in0.0 mm 0.00 in0.0 mm
01:45 AM 55.0°F12.8°C 52.5°F11.4°C 91% 0.9 mph E1.4 kmh E 6.1 mph9.8 kmh 29.83 in1010.2 mb 0.00 in0.0 mm 0.00 in0.0 mm 0.00 in0.0 mm
02:00 AM 54.9°F12.7°C 52.6°F11.4°C 92% 5.3 mph ESE8.5 kmh ESE 9.7 mph15.6 kmh 29.83 in1010.2 mb 0.00 in0.0 mm 0.00 in0.0 mm 0.00 in0.0 mm
02:15 AM 55.0°F12.8°C 53.1°F11.7°C 93% 4.1 mph E6.6 kmh E 7.9 mph12.7 kmh 29.83 in1010.2 mb 0.00 in0.0 mm 0.00 in0.0 mm 0.00 in0.0 mm
02:30 AM 55.0°F12.8°C 53.1°F11.7°C 93% 3.4 mph S5.5 kmh S 6.4 mph10.3 kmh 29.83 in1010.2 mb 0.04 in1.0 mm 0.16 in4.1 mm 0.04 in1.0 mm
02:45 AM 55.0°F12.8°C 53.1°F11.7°C 93% 3.5 mph ESE5.6 kmh ESE 6.4 mph10.3 kmh 29.83 in1010.2 mb 0.04 in1.0 mm 0.00 in0.0 mm 0.04 in1.0 mm
03:00 AM 54.7°F12.6°C 52.4°F11.3°C 92% Calm Calm -- 29.83 in1010.2 mb 0.04 in1.0 mm 0.00 in0.0 mm 0.04 in1.0 mm
03:15 AM 54.7°F12.6°C 52.7°F11.5°C 93% 4.7 mph E7.6 kmh E 10.4 mph16.7 kmh 29.83 in1010.2 mb 0.09 in2.3 mm 0.20 in5.1 mm 0.09 in2.3 mm
03:30 AM 54.7°F12.6°C 52.7°F11.5°C 93% 5.5 mph ESE8.9 kmh ESE 11.5 mph18.5 kmh 29.83 in1010.2 mb 0.13 in3.3 mm 0.16 in4.1 mm 0.18 in4.6 mm
03:45 AM 54.7°F12.6°C 52.7°F11.5°C 93% 5.2 mph SE8.4 kmh SE 9.3 mph15.0 kmh 29.83 in1010.2 mb 0.13 in3.3 mm 0.00 in0.0 mm 0.18 in4.6 mm
04:00 AM 54.9°F12.7°C 53.2°F11.8°C 94% 2.1 mph E3.4 kmh E 5.7 mph9.2 kmh 29.83 in1010.2 mb 0.19 in4.8 mm 0.08 in2.0 mm 0.23 in5.8 mm
04:15 AM 54.7°F12.6°C 53.0°F11.7°C 94% 3.7 mph ESE6.0 kmh ESE 6.8 mph10.9 kmh 29.83 in1010.2 mb 0.32 in8.1 mm 0.52 in13.2 mm 0.41 in10.4 mm
04:30 AM 54.7°F12.6°C 53.0°F11.7°C 94% 0.3 mph SE0.5 kmh SE 3.2 mph5.1 kmh 29.83 in1010.2 mb 0.33 in8.4 mm 0.04 in1.0 mm 0.51 in13.0 mm
04:45 AM 54.5°F12.5°C 52.8°F11.6°C 94% Calm Calm -- 29.83 in1010.2 mb 0.37 in9.4 mm 0.16 in4.1 mm 0.55 in14.0 mm
05:00 AM 54.7°F12.6°C 53.0°F11.7°C 94% 1.9 mph E3.1 kmh E 4.7 mph7.6 kmh 29.83 in1010.2 mb 0.32 in8.1 mm 0.00 in0.0 mm 0.55 in14.0 mm
05:15 AM 54.9°F12.7°C 53.2°F11.8°C 94% 0.7 mph SE1.1 kmh SE 4.7 mph7.6 kmh 29.80 in1009.1 mb 0.19 in4.8 mm 0.00 in0.0 mm 0.59 in15.0 mm
05:30 AM 55.2°F12.9°C 53.8°F12.1°C 95% Calm Calm 1.4 mph2.3 kmh 29.80 in1009.1 mb 0.09 in2.3 mm 0.00 in0.0 mm 0.59 in15.0 mm
05:45 AM 55.8°F13.2°C 54.3°F12.4°C 95% Calm Calm -- 29.83 in1010.2 mb 0.04 in1.0 mm 0.00 in0.0 mm 0.59 in15.0 mm
06:00 AM 56.1°F13.4°C 54.7°F12.6°C 95% 2.1 mph E3.4 kmh E 4.7 mph7.6 kmh 29.83 in1010.2 mb 0.04 in1.0 mm 0.00 in0.0 mm 0.59 in15.0 mm
06:15 AM 56.3°F13.5°C 54.9°F12.7°C 95% 4.1 mph ESE6.6 kmh ESE 8.6 mph13.8 kmh 29.83 in1010.2 mb 0.00 in0.0 mm 0.00 in0.0 mm 0.59 in15.0 mm
06:30 AM 56.3°F13.5°C 54.9°F12.7°C 95% 2.2 mph E3.5 kmh E 5.4 mph8.7 kmh 29.83 in1010.2 mb 0.00 in0.0 mm 0.00 in0.0 mm 0.59 in15.0 mm
06:45 AM 56.1°F13.4°C 54.4°F12.4°C 94% 4.2 mph ESE6.8 kmh ESE 8.6 mph13.8 kmh 29.83 in1010.2 mb 0.00 in0.0 mm 0.00 in0.0 mm 0.59 in15.0 mm
07:00 AM 56.3°F13.5°C 54.9°F12.7°C 95% 5.2 mph ESE8.4 kmh ESE 11.5 mph18.5 kmh 29.83 in1010.2 mb 0.00 in0.0 mm 0.00 in0.0 mm 0.59 in15.0 mm
07:15 AM 57.2°F14.0°C 56.1°F13.4°C 96% 3.8 mph ESE6.1 kmh ESE 8.6 mph13.8 kmh 29.83 in1010.2 mb 0.00 in0.0 mm 0.00 in0.0 mm 0.59 in15.0 mm
07:30 AM 58.1°F14.5°C 57.0°F13.9°C 96% 3.0 mph E4.8 kmh E 6.8 mph10.9 kmh 29.83 in1010.2 mb 0.00 in0.0 mm 0.00 in0.0 mm 0.59 in15.0 mm
07:45 AM 58.8°F14.9°C 57.7°F14.3°C 96% 0.8 mph ESE1.3 kmh ESE 5.4 mph8.7 kmh 29.83 in1010.2 mb 0.00 in0.0 mm 0.00 in0.0 mm 0.59 in15.0 mm
08:00 AM 59.5°F15.3°C 58.1°F14.5°C 95% Calm Calm -- 29.83 in1010.2 mb 0.00 in0.0 mm 0.00 in0.0 mm 0.59 in15.0 mm
08:15 AM 59.5°F15.3°C 57.5°F14.2°C 93% Calm Calm -- 29.86 in1011.2 mb 0.00 in0.0 mm 0.00 in0.0 mm 0.59 in15.0 mm
08:30 AM 59.4°F15.2°C 57.3°F14.1°C 93% Calm Calm -- 29.83 in1010.2 mb 0.00 in0.0 mm 0.00 in0.0 mm 0.59 in15.0 mm
08:45 AM 59.9°F15.5°C 57.9°F14.4°C 93% Calm Calm -- 29.86 in1011.2 mb 0.00 in0.0 mm 0.00 in0.0 mm 0.59 in15.0 mm
09:00 AM 60.6°F15.9°C 58.9°F14.9°C 94% Calm Calm -- 29.86 in1011.2 mb 0.00 in0.0 mm 0.00 in0.0 mm 0.59 in15.0 mm
09:15 AM 63.0°F17.2°C 59.3°F15.2°C 88% 0.5 mph NW0.8 kmh NW 4.7 mph7.6 kmh 29.86 in1011.2 mb 0.00 in0.0 mm 0.00 in0.0 mm 0.59 in15.0 mm
09:30 AM 62.4°F16.9°C 57.5°F14.2°C 84% 0.9 mph W1.4 kmh W 6.1 mph9.8 kmh 29.86 in1011.2 mb 0.00 in0.0 mm 0.00 in0.0 mm 0.59 in15.0 mm
09:45 AM 63.0°F17.2°C 58.4°F14.7°C 85% 0.3 mph WSW0.5 kmh WSW 2.5 mph4.0 kmh 29.86 in1011.2 mb 0.00 in0.0 mm 0.00 in0.0 mm 0.59 in15.0 mm
10:00 AM 63.0°F17.2°C 56.7°F13.7°C 80% 1.9 mph N3.1 kmh N 6.4 mph10.3 kmh 29.86 in1011.2 mb 0.00 in0.0 mm 0.00 in0.0 mm 0.59 in15.0 mm
10:15 AM 63.5°F17.5°C 56.5°F13.6°C 78% 1.6 mph NNW2.6 kmh NNW 6.1 mph9.8 kmh 29.83 in1010.2 mb 0.00 in0.0 mm 0.00 in0.0 mm 0.59 in15.0 mm
10:30 AM 64.2°F17.9°C 56.5°F13.6°C 76% 1.6 mph NW2.6 kmh NW 6.8 mph10.9 kmh 29.83 in1010.2 mb 0.00 in0.0 mm 0.00 in0.0 mm 0.59 in15.0 mm
10:45 AM 65.1°F18.4°C 57.7°F14.3°C 77% 1.4 mph NNW2.3 kmh NNW 6.4 mph10.3 kmh 29.83 in1010.2 mb 0.00 in0.0 mm 0.00 in0.0 mm 0.59 in15.0 mm
11:00 AM 66.7°F19.3°C 58.9°F14.9°C 76% 1.4 mph W2.3 kmh W 5.4 mph8.7 kmh 29.86 in1011.2 mb 0.00 in0.0 mm 0.00 in0.0 mm 0.59 in15.0 mm
11:15 AM 66.4°F19.1°C 57.5°F14.2°C 73% 2.0 mph WNW3.2 kmh WNW 8.6 mph13.8 kmh 29.86 in1011.2 mb 0.00 in0.0 mm 0.00 in0.0 mm 0.59 in15.0 mm
11:30 AM 66.4°F19.1°C 57.8°F14.3°C 74% 2.6 mph W4.2 kmh W 10.4 mph16.7 kmh 29.86 in1011.2 mb 0.00 in0.0 mm 0.00 in0.0 mm 0.59 in15.0 mm
11:45 AM 67.5°F19.7°C 58.1°F14.5°C 72% 3.7 mph NW6.0 kmh NW 12.9 mph20.8 kmh 29.86 in1011.2 mb 0.00 in0.0 mm 0.00 in0.0 mm 0.59 in15.0 mm
12:00 PM 67.6°F19.8°C 58.3°F14.6°C 72% 3.1 mph W5.0 kmh W 8.6 mph13.8 kmh 29.86 in1011.2 mb 0.00 in0.0 mm 0.00 in0.0 mm 0.59 in15.0 mm
12:15 PM 69.1°F20.6°C 58.9°F14.9°C 70% 4.9 mph W7.9 kmh W 12.2 mph19.6 kmh 29.89 in1012.2 mb 0.00 in0.0 mm 0.00 in0.0 mm 0.59 in15.0 mm
12:30 PM 69.1°F20.6°C 58.5°F14.7°C 69% 4.0 mph WNW6.4 kmh WNW 12.2 mph19.6 kmh 29.89 in1012.2 mb 0.00 in0.0 mm 0.00 in0.0 mm 0.59 in15.0 mm
12:45 PM 69.1°F20.6°C 58.5°F14.7°C 69% 4.3 mph WNW6.9 kmh WNW 10.0 mph16.1 kmh 29.89 in1012.2 mb 0.00 in0.0 mm 0.00 in0.0 mm 0.59 in15.0 mm
01:00 PM 69.8°F21.0°C 58.3°F14.6°C 67% 5.1 mph WNW8.2 kmh WNW 14.7 mph23.7 kmh 29.89 in1012.2 mb 0.00 in0.0 mm 0.00 in0.0 mm 0.59 in15.0 mm
01:15 PM 69.6°F20.9°C 56.9°F13.8°C 64% 5.0 mph WNW8.0 kmh WNW 14.7 mph23.7 kmh 29.89 in1012.2 mb 0.00 in0.0 mm 0.00 in0.0 mm 0.59 in15.0 mm
01:30 PM 68.9°F20.5°C 56.2°F13.4°C 64% 5.3 mph WNW8.5 kmh WNW 14.0 mph22.5 kmh 29.89 in1012.2 mb 0.00 in0.0 mm 0.00 in0.0 mm 0.59 in15.0 mm
01:45 PM 68.7°F20.4°C 56.9°F13.8°C 66% 4.9 mph WNW7.9 kmh WNW 11.8 mph19.0 kmh 29.89 in1012.2 mb 0.00 in0.0 mm 0.00 in0.0 mm 0.59 in15.0 mm
02:00 PM 68.7°F20.4°C 56.9°F13.8°C 66% 4.3 mph W6.9 kmh W 10.0 mph16.1 kmh 29.89 in1012.2 mb 0.00 in0.0 mm 0.00 in0.0 mm 0.59 in15.0 mm
02:15 PM 68.0°F20.0°C 55.8°F13.2°C 65% 5.0 mph NW8.0 kmh NW 13.6 mph21.9 kmh 29.89 in1012.2 mb 0.00 in0.0 mm 0.00 in0.0 mm 0.59 in15.0 mm
02:30 PM 68.4°F20.2°C 57.0°F13.9°C 67% 4.6 mph W7.4 kmh W 12.5 mph20.1 kmh 29.92 in1013.2 mb 0.00 in0.0 mm 0.00 in0.0 mm 0.59 in15.0 mm
02:45 PM 68.7°F20.4°C 57.3°F14.1°C 67% 6.0 mph W9.7 kmh W 13.6 mph21.9 kmh 29.89 in1012.2 mb 0.00 in0.0 mm 0.00 in0.0 mm 0.59 in15.0 mm
03:00 PM 68.2°F20.1°C 54.2°F12.3°C 61% 5.4 mph NW8.7 kmh NW 11.5 mph18.5 kmh 29.92 in1013.2 mb 0.00 in0.0 mm 0.00 in0.0 mm 0.59 in15.0 mm
03:15 PM 68.0°F20.0°C 54.0°F12.2°C 61% 4.5 mph NW7.2 kmh NW 10.0 mph16.1 kmh 29.92 in1013.2 mb 0.00 in0.0 mm 0.00 in0.0 mm 0.59 in15.0 mm
03:30 PM 68.2°F20.1°C 54.2°F12.3°C 61% 4.7 mph WNW7.6 kmh WNW 15.7 mph25.3 kmh 29.92 in1013.2 mb 0.00 in0.0 mm 0.00 in0.0 mm 0.59 in15.0 mm
03:45 PM 68.0°F20.0°C 53.6°F12.0°C 60% 4.4 mph NW7.1 kmh NW 10.0 mph16.1 kmh 29.92 in1013.2 mb 0.00 in0.0 mm 0.00 in0.0 mm 0.59 in15.0 mm
04:00 PM 68.0°F20.0°C 54.5°F12.5°C 62% 4.4 mph NW7.1 kmh NW 12.5 mph20.1 kmh 29.92 in1013.2 mb 0.00 in0.0 mm 0.00 in0.0 mm 0.59 in15.0 mm
04:15 PM 67.6°F19.8°C 53.7°F12.1°C 61% 4.2 mph NW6.8 kmh NW 10.4 mph16.7 kmh 29.92 in1013.2 mb 0.00 in0.0 mm 0.00 in0.0 mm 0.59 in15.0 mm
04:30 PM 67.1°F19.5°C 52.7°F11.5°C 60% 4.9 mph NW7.9 kmh NW 15.4 mph24.8 kmh 29.92 in1013.2 mb 0.00 in0.0 mm 0.00 in0.0 mm 0.59 in15.0 mm
04:45 PM 66.9°F19.4°C 53.5°F11.9°C 62% 4.3 mph WNW6.9 kmh WNW 12.5 mph20.1 kmh 29.92 in1013.2 mb 0.00 in0.0 mm 0.00 in0.0 mm 0.59 in15.0 mm
05:00 PM 66.7°F19.3°C 52.9°F11.6°C 61% 3.8 mph NW6.1 kmh NW 9.7 mph15.6 kmh 29.92 in1013.2 mb 0.00 in0.0 mm 0.00 in0.0 mm 0.59 in15.0 mm
05:15 PM 66.0°F18.9°C 51.7°F10.9°C 60% 3.9 mph NW6.3 kmh NW 9.7 mph15.6 kmh 29.95 in1014.2 mb 0.00 in0.0 mm 0.00 in0.0 mm 0.59 in15.0 mm
05:30 PM 65.5°F18.6°C 51.7°F10.9°C 61% 3.3 mph NW5.3 kmh NW 7.9 mph12.7 kmh 29.95 in1014.2 mb 0.00 in0.0 mm 0.00 in0.0 mm 0.59 in15.0 mm
05:45 PM 64.8°F18.2°C 51.0°F10.6°C 61% 3.4 mph NW5.5 kmh NW 8.6 mph13.8 kmh 29.92 in1013.2 mb 0.00 in0.0 mm 0.00 in0.0 mm 0.59 in15.0 mm
06:00 PM 64.2°F17.9°C 50.9°F10.5°C 62% 3.9 mph NW6.3 kmh NW 11.5 mph18.5 kmh 29.92 in1013.2 mb 0.00 in0.0 mm 0.00 in0.0 mm 0.59 in15.0 mm
06:15 PM 63.5°F17.5°C 51.1°F10.6°C 64% 4.0 mph WNW6.4 kmh WNW 11.8 mph19.0 kmh 29.92 in1013.2 mb 0.00 in0.0 mm 0.00 in0.0 mm 0.59 in15.0 mm
06:30 PM 62.8°F17.1°C 52.1°F11.2°C 68% 2.3 mph NW3.7 kmh NW 7.5 mph12.1 kmh 29.89 in1012.2 mb 0.00 in0.0 mm 0.00 in0.0 mm 0.59 in15.0 mm
06:45 PM 62.1°F16.7°C 53.3°F11.8°C 73% 1.8 mph WNW2.9 kmh WNW 9.3 mph15.0 kmh 29.92 in1013.2 mb 0.00 in0.0 mm 0.00 in0.0 mm 0.59 in15.0 mm
07:00 PM 61.5°F16.4°C 53.5°F11.9°C 75% 2.7 mph W4.3 kmh W 12.2 mph19.6 kmh 29.89 in1012.2 mb 0.00 in0.0 mm 0.00 in0.0 mm 0.59 in15.0 mm
07:15 PM 60.8°F16.0°C 53.5°F11.9°C 77% 3.2 mph W5.1 kmh W 6.8 mph10.9 kmh 29.89 in1012.2 mb 0.00 in0.0 mm 0.00 in0.0 mm 0.59 in15.0 mm
07:30 PM 60.1°F15.6°C 53.2°F11.8°C 78% 3.3 mph W5.3 kmh W 8.6 mph13.8 kmh 29.92 in1013.2 mb 0.00 in0.0 mm 0.00 in0.0 mm 0.59 in15.0 mm
07:45 PM 59.2°F15.1°C 52.7°F11.5°C 79% 3.0 mph WNW4.8 kmh WNW 10.0 mph16.1 kmh 29.92 in1013.2 mb 0.00 in0.0 mm 0.00 in0.0 mm 0.59 in15.0 mm
08:00 PM 58.5°F14.7°C 52.0°F11.1°C 79% 0.5 mph WNW0.8 kmh WNW 5.7 mph9.2 kmh 29.92 in1013.2 mb 0.00 in0.0 mm 0.00 in0.0 mm 0.59 in15.0 mm
08:15 PM 57.9°F14.4°C 51.8°F11.0°C 80% 0.1 mph W0.2 kmh W 1.8 mph2.9 kmh 29.92 in1013.2 mb 0.00 in0.0 mm 0.00 in0.0 mm 0.59 in15.0 mm
08:30 PM 57.6°F14.2°C 52.1°F11.2°C 82% Calm Calm -- 29.95 in1014.2 mb 0.00 in0.0 mm 0.00 in0.0 mm 0.59 in15.0 mm
08:45 PM 57.0°F13.9°C 51.6°F10.9°C 82% 0.5 mph W0.8 kmh W 3.9 mph6.3 kmh 29.95 in1014.2 mb 0.00 in0.0 mm 0.00 in0.0 mm 0.59 in15.0 mm
09:00 PM 56.5°F13.6°C 51.4°F10.8°C 83% 1.2 mph W1.9 kmh W 3.9 mph6.3 kmh 29.95 in1014.2 mb 0.00 in0.0 mm 0.00 in0.0 mm 0.59 in15.0 mm
09:15 PM 56.3°F13.5°C 51.2°F10.7°C 83% 1.3 mph W2.1 kmh W 4.7 mph7.6 kmh 29.95 in1014.2 mb 0.00 in0.0 mm 0.00 in0.0 mm 0.59 in15.0 mm
09:30 PM 56.1°F13.4°C 51.4°F10.8°C 84% Calm Calm -- 29.95 in1014.2 mb 0.00 in0.0 mm 0.00 in0.0 mm 0.59 in15.0 mm
09:45 PM 55.8°F13.2°C 51.3°F10.7°C 85% Calm Calm -- 29.92 in1013.2 mb 0.00 in0.0 mm 0.00 in0.0 mm 0.59 in15.0 mm
10:00 PM 55.6°F13.1°C 51.1°F10.6°C 85% Calm Calm -- 29.95 in1014.2 mb 0.00 in0.0 mm 0.00 in0.0 mm 0.59 in15.0 mm
10:15 PM 55.6°F13.1°C 51.5°F10.8°C 86% Calm Calm -- 29.95 in1014.2 mb 0.00 in0.0 mm 0.00 in0.0 mm 0.59 in15.0 mm
10:30 PM 55.6°F13.1°C 51.8°F11.0°C 87% Calm Calm -- 29.95 in1014.2 mb 0.00 in0.0 mm 0.00 in0.0 mm 0.59 in15.0 mm
10:45 PM 55.4°F13.0°C 51.6°F10.9°C 87% Calm Calm -- 29.95 in1014.2 mb 0.00 in0.0 mm 0.00 in0.0 mm 0.59 in15.0 mm
11:00 PM 55.4°F13.0°C 51.6°F10.9°C 87% Calm Calm -- 29.95 in1014.2 mb 0.00 in0.0 mm 0.00 in0.0 mm 0.37 in9.4 mm
11:15 PM 55.4°F13.0°C 51.9°F11.1°C 88% Calm Calm -- 29.95 in1014.2 mb 0.00 in0.0 mm 0.00 in0.0 mm 0.37 in9.4 mm
11:30 PM 55.2°F12.9°C 51.7°F10.9°C 88% Calm Calm -- 29.92 in1013.2 mb 0.00 in0.0 mm 0.00 in0.0 mm 0.37 in9.4 mm
11:45 PM 55.2°F12.9°C 51.7°F10.9°C 88% Calm Calm -- 29.92 in1013.2 mb 0.00 in0.0 mm 0.00 in0.0 mm 0.37 in9.4 mm